Terminal Aerodrome Forecast
Issued by NWS

Home | Current Version | Previous Version | Text Only | Print | Product List | Glossary On
Versions: 1 2 3 4 5 6 7 8 9 10 11 12 13
000
FTUS45 KRIW 261551 AAA
TAFLND
TAF AMD
KLND 261551Z 2616/2712 VRB06KT P6SM -RA OVC035
     FM262100 VRB08KT P6SM VCTS BKN050CB
     FM262300 02008KT 5SM -SHRA VCTS BKN030CB
     FM270000 02008KT 5SM -RA OVC020
     FM270400 34006KT P6SM VCSH SCT015 OVC025=

USA.gov is the U.S. government's official web portal to all federal, state and local government web resources and services.